Map

Track Data

SID SEASON NUMBER BASIN SUBBASIN NAME ISO_TIME NATURE LAT LON WMO_WIND WMO_PRES WMO_AGENCY TRACK_TYPE DIST2LAND LANDFALL IFLAG USA_AGENCY USA_ATCF_ID USA_LAT USA_LON USA_RECORD USA_STATUS USA_WIND USA_PRES USA_SSHS USA_R34_NE USA_R34_SE USA_R34_SW USA_R34_NW USA_R50_NE USA_R50_SE USA_R50_SW USA_R50_NW USA_R64_NE USA_R64_SE USA_R64_SW USA_R64_NW USA_POCI USA_ROCI USA_RMW USA_EYE TOKYO_LAT TOKYO_LON TOKYO_GRADE TOKYO_WIND TOKYO_PRES TOKYO_R50_DIR TOKYO_R50_LONG TOKYO_R50_SHORT TOKYO_R30_DIR TOKYO_R30_LONG TOKYO_R30_SHORT TOKYO_LAND CMA_LAT CMA_LON CMA_CAT CMA_WIND CMA_PRES HKO_LAT HKO_LON HKO_CAT HKO_WIND HKO_PRES NEWDELHI_LAT NEWDELHI_LON NEWDELHI_GRADE NEWDELHI_WIND NEWDELHI_PRES NEWDELHI_CI NEWDELHI_DP NEWDELHI_POCI REUNION_LAT REUNION_LON REUNION_TYPE REUNION_WIND REUNION_PRES REUNION_TNUM REUNION_CI REUNION_RMW REUNION_R34_NE REUNION_R34_SE REUNION_R34_SW REUNION_R34_NW REUNION_R50_NE REUNION_R50_SE REUNION_R50_SW REUNION_R50_NW REUNION_R64_NE REUNION_R64_SE REUNION_R64_SW REUNION_R64_NW BOM_LAT BOM_LON BOM_TYPE BOM_WIND BOM_PRES BOM_TNUM BOM_CI BOM_RMW BOM_R34_NE BOM_R34_SE BOM_R34_SW BOM_R34_NW BOM_R50_NE BOM_R50_SE BOM_R50_SW BOM_R50_NW BOM_R64_NE BOM_R64_SE BOM_R64_SW BOM_R64_NW BOM_ROCI BOM_POCI BOM_EYE BOM_POS_METHOD BOM_PRES_METHOD NADI_LAT NADI_LON NADI_CAT NADI_WIND NADI_PRES WELLINGTON_LAT WELLINGTON_LON WELLINGTON_WIND WELLINGTON_PRES DS824_LAT DS824_LON DS824_STAGE DS824_WIND DS824_PRES TD9636_LAT TD9636_LON TD9636_STAGE TD9636_WIND TD9636_PRES TD9635_LAT TD9635_LON TD9635_WIND TD9635_PRES TD9635_ROCI NEUMANN_LAT NEUMANN_LON NEUMANN_CLASS NEUMANN_WIND NEUMANN_PRES MLC_LAT MLC_LON MLC_CLASS MLC_WIND MLC_PRES USA_GUST BOM_GUST BOM_GUST_PER REUNION_GUST REUNION_GUST_PER USA_SEAHGT USA_SEARAD_NE USA_SEARAD_SE USA_SEARAD_SW USA_SEARAD_NW STORM_SPEED STORM_DIR
1918203N16146 1918 41 WP MM NOT_NAMED 1918-07-21 22:00:00 NR 16.1000 145.800 main 2040 2040 __________O___ -1 16.1000 145.800 4 10 325
1918203N16146 1918 41 WP MM NOT_NAMED 1918-07-22 00:00:00 NR 16.3804 145.600 main 2075 2075 __________P___ -1 16.3804 145.600 4 10 326
1918203N16146 1918 41 WP MM NOT_NAMED 1918-07-22 03:00:00 NR 16.8020 145.306 main 2083 2029 __________P___ -1 16.8020 145.306 4 10 327
1918203N16146 1918 41 WP MM NOT_NAMED 1918-07-22 06:00:00 NR 17.2263 145.028 main 2029 1969 __________P___ -1 17.2263 145.028 4 10 329
1918203N16146 1918 41 WP MM NOT_NAMED 1918-07-22 09:00:00 NR 17.6555 144.776 main 1969 1955 __________P___ -1 17.6555 144.776 4 10 332
1918203N16146 1918 41 WP MM NOT_NAMED 1918-07-22 10:00:00 NR 17.8000 144.700 main 1955 1920 __________O___ -1 17.8000 144.700 4 10 335
1918203N16146 1918 41 WP MM NOT_NAMED 1918-07-22 12:00:00 NR 18.0915 144.560 main 1920 1870 __________P___ -1 18.0915 144.560 4 10 337
1918203N16146 1918 41 WP MM NOT_NAMED 1918-07-22 15:00:00 NR 18.5352 144.376 main 1870 1811 __________P___ -1 18.5352 144.376 4 10 340
1918203N16146 1918 41 WP MM NOT_NAMED 1918-07-22 18:00:00 NR 18.9865 144.211 main 1811 1766 __________P___ -1 18.9865 144.211 4 10 342
1918203N16146 1918 41 WP MM NOT_NAMED 1918-07-22 21:00:00 NR 19.4454 144.053 main 1766 1741 __________P___ -1 19.4454 144.053 4 10 342
1918203N16146 1918 41 WP MM NOT_NAMED 1918-07-22 22:00:00 NR 19.6000 144.000 main 1741 1707 __________O___ -1 19.6000 144.000 4 10 343
1918203N16146 1918 41 WP MM NOT_NAMED 1918-07-23 00:00:00 NR 19.9029 143.901 main 1707 1652 __________P___ -1 19.9029 143.901 4 10 343
1918203N16146 1918 41 WP MM NOT_NAMED 1918-07-23 03:00:00 NR 20.3634 143.753 main 1652 1603 __________P___ -1 20.3634 143.753 4 10 342
1918203N16146 1918 41 WP MM NOT_NAMED 1918-07-23 06:00:00 NR 20.8371 143.587 main 1603 1543 __________P___ -1 20.8371 143.587 4 10 340
1918203N16146 1918 41 WP MM NOT_NAMED 1918-07-23 09:00:00 NR 21.3302 143.381 main 1543 1519 __________P___ -1 21.3302 143.381 4 11 338
1918203N16146 1918 41 WP MM NOT_NAMED 1918-07-23 10:00:00 NR 21.5000 143.300 main 1519 1474 __________O___ -1 21.5000 143.300 4 12 339
1918203N16146 1918 41 WP MM NOT_NAMED 1918-07-23 12:00:00 NR 21.8773 143.161 main 1474 1401 __________P___ -1 21.8773 143.161 4 12 339
1918203N16146 1918 41 WP MM NOT_NAMED 1918-07-23 15:00:00 NR 22.4629 142.910 main 1401 1337 __________P___ -1 22.4629 142.910 4 13 335
1918203N16146 1918 41 WP MM NOT_NAMED 1918-07-23 18:00:00 NR 23.0343 142.570 main 1337 1264 __________P___ -1 23.0343 142.570 4 13 325
1918203N16146 1918 41 WP MM NOT_NAMED 1918-07-23 21:00:00 NR 23.5487 142.095 main 1264 1234 __________P___ -1 23.5487 142.095 4 14 317
1918203N16146 1918 41 WP MM NOT_NAMED 1918-07-23 22:00:00 NR 23.7000 141.900 main 1234 1192 __________O___ -1 23.7000 141.900 4 14 304
1918203N16146 1918 41 WP MM NOT_NAMED 1918-07-24 00:00:00 NR 23.9469 141.446 main 1192 1127 __________P___ -1 23.9469 141.446 4 15 295
1918203N16146 1918 41 WP MM NOT_NAMED 1918-07-24 03:00:00 NR 24.2472 140.633 main 1127 1063 __________P___ -1 24.2472 140.633 4 17 289
1918203N16146 1918 41 WP MM NOT_NAMED 1918-07-24 06:00:00 NR 24.4938 139.710 main 1063 1010 __________P___ -1 24.4938 139.710 4 18 285
1918203N16146 1918 41 WP MM NOT_NAMED 1918-07-24 09:00:00 NR 24.7219 138.730 main 1010 994 __________P___ -1 24.7219 138.730 4 18 284
1918203N16146 1918 41 WP MM NOT_NAMED 1918-07-24 10:00:00 NR 24.8000 138.400 main 992 943 __________O___ -1 24.8000 138.400 4 19 286
1918203N16146 1918 41 WP MM NOT_NAMED 1918-07-24 12:00:00 NR 24.9901 137.716 main 943 855 __________P___ -1 24.9901 137.716 4 20 287
1918203N16146 1918 41 WP MM NOT_NAMED 1918-07-24 15:00:00 NR 25.2751 136.663 main 855 766 __________P___ -1 25.2751 136.663 4 20 287
1918203N16146 1918 41 WP MM NOT_NAMED 1918-07-24 18:00:00 NR 25.5525 135.649 main 766 705 __________P___ -1 25.5525 135.649 4 18 287
1918203N16146 1918 41 WP MM NOT_NAMED 1918-07-24 21:00:00 NR 25.8160 134.757 main 705 679 __________P___ -1 25.8160 134.757 4 16 289
1918203N16146 1918 41 WP MM NOT_NAMED 1918-07-24 22:00:00 NR 25.9000 134.500 main 679 649 __________O___ -1 25.9000 134.500 4 13 291
1918203N16146 1918 41 WP MM NOT_NAMED 1918-07-25 00:00:00 NR 26.0454 134.081 main 649 595 __________P___ -1 26.0454 134.081 4 11 293
1918203N16146 1918 41 WP MM NOT_NAMED 1918-07-25 03:00:00 NR 26.2533 133.593 main 595 558 __________P___ -1 26.2533 133.593 4 9 299
1918203N16146 1918 41 WP MM NOT_NAMED 1918-07-25 06:00:00 NR 26.4679 133.221 main 558 525 __________P___ -1 26.4679 133.221 4 8 307
1918203N16146 1918 41 WP MM NOT_NAMED 1918-07-25 09:00:00 NR 26.7098 132.904 main 525 511 __________P___ -1 26.7098 132.904 4 8 312
1918203N16146 1918 41 WP MM NOT_NAMED 1918-07-25 10:00:00 NR 26.8000 132.800 main 511 483 __________O___ -1 26.8000 132.800 4 8 315
1918203N16146 1918 41 WP MM NOT_NAMED 1918-07-25 12:00:00 NR 26.9974 132.585 main 483 437 __________P___ -1 26.9974 132.585 4 9 317
1918203N16146 1918 41 WP MM NOT_NAMED 1918-07-25 15:00:00 NR 27.3293 132.245 main 437 386 __________P___ -1 27.3293 132.245 4 9 318
1918203N16146 1918 41 WP MM NOT_NAMED 1918-07-25 18:00:00 NR 27.6921 131.890 main 386 332 __________P___ -1 27.6921 131.890 4 10 319
1918203N16146 1918 41 WP MM NOT_NAMED 1918-07-25 21:00:00 NR 28.0719 131.523 main 332 319 __________P___ -1 28.0719 131.523 4 10 320
1918203N16146 1918 41 WP MM NOT_NAMED 1918-07-25 22:00:00 NR 28.2000 131.400 main 319 __________O___ -1 28.2000 131.400 4 10 320

Digital Typhoon Data and Search

About IBTrACS Database

This database is a web-friendly format of International Best Track Archive for Climate Stewardship (IBTrACS), a global best track data archive curated by NOAA dating back to 1842.

Updated: 2021-10-08